createdAt,value
2022-11-25T00:00:40.728Z,9.01
2022-11-25T00:01:40.838Z,9.02
2022-11-25T00:02:40.831Z,9.04
2022-11-25T00:03:40.693Z,9.04
2022-11-25T00:04:40.676Z,9.05
2022-11-25T00:05:40.682Z,9.06
2022-11-25T00:06:40.694Z,9.09
2022-11-25T00:07:40.670Z,9.10
2022-11-25T00:08:40.677Z,9.10
2022-11-25T00:09:40.628Z,9.13
2022-11-25T00:10:42.559Z,9.15
2022-11-25T00:11:40.897Z,9.13
2022-11-25T00:12:40.970Z,9.18
2022-11-25T00:13:40.552Z,9.20
2022-11-25T00:14:40.577Z,9.21
2022-11-25T00:15:40.558Z,9.21
2022-11-25T00:16:43.740Z,9.20
2022-11-25T00:17:41.711Z,9.23
2022-11-25T00:18:40.503Z,9.23
2022-11-25T00:19:40.510Z,9.25
2022-11-25T00:20:40.508Z,9.28
2022-11-25T00:21:40.662Z,9.28
2022-11-25T00:22:40.514Z,9.28
2022-11-25T00:23:40.497Z,9.30
2022-11-25T00:24:40.433Z,9.30
2022-11-25T00:25:40.440Z,9.30
2022-11-25T00:26:40.441Z,9.30
2022-11-25T00:27:40.585Z,9.30
2022-11-25T00:28:40.422Z,9.32
2022-11-25T00:29:40.365Z,9.32
2022-11-25T00:30:40.391Z,9.32
2022-11-25T00:31:40.623Z,9.35
2022-11-25T00:32:40.372Z,9.34
2022-11-25T00:33:40.320Z,9.35
2022-11-25T00:34:40.323Z,9.39
2022-11-25T00:35:40.363Z,9.42
2022-11-25T00:36:40.306Z,9.40
2022-11-25T00:37:40.512Z,9.42
2022-11-25T00:38:40.294Z,9.42
2022-11-25T00:39:40.276Z,9.42
2022-11-25T00:40:40.284Z,9.40
2022-11-25T00:41:40.236Z,9.42
2022-11-25T00:42:40.227Z,9.43
2022-11-25T00:43:40.528Z,9.46
2022-11-25T00:44:41.128Z,9.45
2022-11-25T00:45:40.229Z,9.48
2022-11-25T00:46:40.216Z,9.48
2022-11-25T00:47:40.185Z,9.50
2022-11-25T00:48:40.185Z,9.50
2022-11-25T00:49:40.373Z,9.53
2022-11-25T00:50:40.141Z,9.56
2022-11-25T00:51:40.117Z,9.56
2022-11-25T00:52:40.378Z,9.56
2022-11-25T00:53:40.099Z,9.57
2022-11-25T00:54:40.083Z,9.56
2022-11-25T00:55:40.082Z,9.58
2022-11-25T00:56:40.058Z,9.60
2022-11-25T00:57:40.085Z,9.60
2022-11-25T00:58:40.377Z,9.60
2022-11-25T00:59:40.065Z,9.60
2022-11-25T01:00:40.024Z,9.63
2022-11-25T01:01:40.019Z,9.63
2022-11-25T01:02:40.039Z,9.63
2022-11-25T01:03:40.019Z,9.63
2022-11-25T01:04:40.163Z,9.64
2022-11-25T01:05:40.008Z,9.63
2022-11-25T01:06:39.941Z,9.63
2022-11-25T01:07:39.960Z,9.64
2022-11-25T01:08:39.949Z,9.63
2022-11-25T01:09:39.946Z,9.64
2022-11-25T01:10:40.120Z,9.61
2022-11-25T01:11:39.929Z,9.63
2022-11-25T01:12:39.874Z,9.63
2022-11-25T01:13:39.872Z,9.63
2022-11-25T01:14:40.074Z,9.61
2022-11-25T01:15:40.064Z,9.61
2022-11-25T01:16:39.883Z,9.64
2022-11-25T01:17:40.062Z,9.64
2022-11-25T01:18:39.802Z,9.66
2022-11-25T01:19:39.869Z,9.66
2022-11-25T01:20:39.801Z,9.66
2022-11-25T01:21:39.836Z,9.67
2022-11-25T01:22:39.781Z,9.66
2022-11-25T01:23:39.781Z,9.67
2022-11-25T01:24:39.771Z,9.67
2022-11-25T01:25:39.735Z,9.68
2022-11-25T01:26:39.759Z,9.67
2022-11-25T01:27:39.726Z,9.70
2022-11-25T01:28:39.712Z,9.70
2022-11-25T01:29:39.696Z,9.70
2022-11-25T01:30:41.252Z,9.67
2022-11-25T01:31:39.689Z,9.68
2022-11-25T01:32:39.982Z,9.67
2022-11-25T01:33:39.654Z,9.66
2022-11-25T01:34:39.643Z,9.67
2022-11-25T01:35:39.629Z,9.64
2022-11-25T01:36:39.624Z,9.63
2022-11-25T01:37:39.877Z,9.61
2022-11-25T01:38:39.607Z,9.64
2022-11-25T01:39:39.597Z,9.63
2022-11-25T01:40:39.549Z,9.63
2022-11-25T01:41:39.575Z,9.61
2022-11-25T01:42:39.528Z,9.61
2022-11-25T01:43:39.565Z,9.61
2022-11-25T01:44:39.561Z,9.60
2022-11-25T01:45:39.918Z,9.58
2022-11-25T01:46:39.515Z,9.58
2022-11-25T01:47:39.481Z,9.58
2022-11-25T01:48:39.488Z,9.57
2022-11-25T01:49:39.495Z,9.57
2022-11-25T01:50:39.449Z,9.57
2022-11-25T01:51:39.463Z,9.56
2022-11-25T01:52:39.429Z,9.52
2022-11-25T01:53:39.427Z,9.52
2022-11-25T01:54:39.737Z,9.49
2022-11-25T01:55:39.381Z,9.49
2022-11-25T01:56:39.380Z,9.50
2022-11-25T01:57:39.351Z,9.48
2022-11-25T01:58:39.359Z,9.49
2022-11-25T01:59:39.546Z,9.48
2022-11-25T02:00:39.588Z,9.49
2022-11-25T02:01:39.418Z,9.46
2022-11-25T02:02:39.395Z,9.45
2022-11-25T02:03:39.310Z,9.43
2022-11-25T02:04:39.282Z,9.43
2022-11-25T02:05:39.289Z,9.40
2022-11-25T02:06:39.319Z,9.40
2022-11-25T02:07:39.281Z,9.40
2022-11-25T02:08:39.244Z,9.39
2022-11-25T02:09:39.245Z,9.35
2022-11-25T02:10:39.241Z,9.35
2022-11-25T02:11:39.260Z,9.35
2022-11-25T02:12:39.541Z,9.32
2022-11-25T02:13:39.199Z,9.34
2022-11-25T02:14:39.177Z,9.32
2022-11-25T02:15:39.145Z,9.30
2022-11-25T02:16:39.249Z,9.31
2022-11-25T02:17:39.432Z,9.30
2022-11-25T02:18:39.152Z,9.30
2022-11-25T02:19:39.342Z,9.28
2022-11-25T02:20:39.132Z,9.28
2022-11-25T02:21:39.111Z,9.28
2022-11-25T02:22:39.103Z,9.28
2022-11-25T02:23:39.121Z,9.28
2022-11-25T02:24:39.088Z,9.30
2022-11-25T02:25:39.067Z,9.30
2022-11-25T02:26:39.060Z,9.31
2022-11-25T02:27:39.011Z,9.31
2022-11-25T02:28:39.016Z,9.32
2022-11-25T02:29:39.187Z,9.32
2022-11-25T02:30:38.997Z,9.31
2022-11-25T02:31:39.036Z,9.35
2022-11-25T02:32:38.993Z,9.32
2022-11-25T02:33:38.967Z,9.32
2022-11-25T02:34:38.959Z,9.31
2022-11-25T02:35:39.226Z,9.34
2022-11-25T02:36:38.936Z,9.34
2022-11-25T02:37:38.889Z,9.34
2022-11-25T02:38:38.938Z,9.34
2022-11-25T02:39:38.868Z,9.34
2022-11-25T02:40:38.890Z,9.32
2022-11-25T02:41:39.119Z,9.35
2022-11-25T02:42:38.848Z,9.34
2022-11-25T02:43:38.846Z,9.35
2022-11-25T02:44:38.848Z,9.34
2022-11-25T02:45:39.118Z,9.35
2022-11-25T02:46:38.804Z,9.38
2022-11-25T02:47:38.807Z,9.38
2022-11-25T02:49:39.752Z,9.40
2022-11-25T02:50:38.761Z,9.42
2022-11-25T02:51:38.757Z,9.42
2022-11-25T02:52:38.768Z,9.43
2022-11-25T02:53:39.032Z,9.43
2022-11-25T02:54:38.732Z,9.45
2022-11-25T02:55:38.723Z,9.45
2022-11-25T02:56:38.707Z,9.43
2022-11-25T02:57:38.666Z,9.46
2022-11-25T02:58:38.681Z,9.45
2022-11-25T02:59:38.983Z,9.45
2022-11-25T03:00:38.724Z,9.46
2022-11-25T03:01:38.869Z,9.45
2022-11-25T03:02:38.717Z,9.46
2022-11-25T03:03:38.915Z,9.48
2022-11-25T03:04:38.772Z,9.48
2022-11-25T03:05:38.578Z,9.50
2022-11-25T03:06:38.580Z,9.49
2022-11-25T03:07:38.605Z,9.50
2022-11-25T03:08:38.580Z,9.52
2022-11-25T03:09:38.786Z,9.53
2022-11-25T03:10:38.534Z,9.53
2022-11-25T03:11:38.531Z,9.56
2022-11-25T03:12:38.506Z,9.56
2022-11-25T03:13:38.774Z,9.56
2022-11-25T03:14:38.476Z,9.56
2022-11-25T03:15:38.484Z,9.58
2022-11-25T03:16:38.764Z,9.57
2022-11-25T03:17:38.464Z,9.58
2022-11-25T03:18:38.437Z,9.60
2022-11-25T03:19:38.435Z,9.58
2022-11-25T03:20:38.443Z,9.58
2022-11-25T03:21:38.414Z,9.61
2022-11-25T03:22:45.712Z,9.61
2022-11-25T03:23:38.374Z,9.63
2022-11-25T03:24:38.623Z,9.64
2022-11-25T03:25:38.371Z,9.66
2022-11-25T03:26:38.656Z,9.63
2022-11-25T03:27:38.315Z,9.63
2022-11-25T03:28:38.647Z,9.67
2022-11-25T03:29:38.324Z,9.67
2022-11-25T03:30:38.323Z,9.68
2022-11-25T03:31:38.350Z,9.68
2022-11-25T03:32:38.302Z,9.70
2022-11-25T03:33:38.595Z,9.71
2022-11-25T03:34:38.531Z,9.70
2022-11-25T03:35:38.217Z,9.71
2022-11-25T03:36:38.593Z,9.73
2022-11-25T03:37:38.218Z,9.73
2022-11-25T03:38:38.208Z,9.73
2022-11-25T03:39:38.181Z,9.75
2022-11-25T03:40:38.262Z,9.76
2022-11-25T03:41:38.279Z,9.78
2022-11-25T03:42:38.415Z,9.79
2022-11-25T03:43:38.155Z,9.79
2022-11-25T03:44:38.374Z,9.81
2022-11-25T03:45:38.130Z,9.83
2022-11-25T03:46:38.110Z,9.85
2022-11-25T03:47:38.118Z,9.88
2022-11-25T03:48:38.148Z,9.88
2022-11-25T03:49:38.096Z,9.91
2022-11-25T03:50:38.060Z,9.93
2022-11-25T03:51:38.069Z,9.94
2022-11-25T03:52:38.067Z,9.94
2022-11-25T03:53:38.066Z,9.97
2022-11-25T03:54:38.560Z,9.99
2022-11-25T03:55:38.311Z,10.01
2022-11-25T03:56:38.021Z,10.01
2022-11-25T03:57:37.972Z,10.03
2022-11-25T03:58:38.242Z,10.03
2022-11-25T03:59:37.980Z,10.04
2022-11-25T04:00:37.953Z,10.03
2022-11-25T04:01:41.433Z,10.04
2022-11-25T04:02:38.978Z,10.04
2022-11-25T04:03:37.903Z,10.06
2022-11-25T04:04:38.435Z,10.06
2022-11-25T04:05:37.911Z,10.07
2022-11-25T04:06:38.220Z,10.06
2022-11-25T04:07:37.967Z,10.09
2022-11-25T04:08:37.854Z,10.07
2022-11-25T04:09:37.836Z,10.06
2022-11-25T04:10:37.865Z,10.06
2022-11-25T04:11:38.123Z,10.07
2022-11-25T04:12:37.840Z,10.06
2022-11-25T04:13:37.812Z,10.07
2022-11-25T04:14:38.121Z,10.07
2022-11-25T04:15:37.765Z,10.07
2022-11-25T04:16:37.849Z,10.07
2022-11-25T04:17:37.999Z,10.06
2022-11-25T04:18:37.773Z,10.06
2022-11-25T04:19:37.742Z,10.04
2022-11-25T04:20:37.743Z,10.03
2022-11-25T04:21:37.697Z,10.03
2022-11-25T04:22:37.725Z,10.03
2022-11-25T04:23:37.687Z,10.04
2022-11-25T04:24:37.984Z,10.03
2022-11-25T04:25:37.648Z,10.03
2022-11-25T04:26:37.928Z,10.03
2022-11-25T04:27:37.655Z,10.01
2022-11-25T04:28:37.631Z,10.01
2022-11-25T04:29:37.598Z,10.01
2022-11-25T04:30:37.641Z,10.03
2022-11-25T04:31:37.606Z,10.04
2022-11-25T04:32:37.919Z,10.06
2022-11-25T04:33:37.576Z,10.06
2022-11-25T04:34:37.782Z,10.06
2022-11-25T04:35:37.558Z,10.04
2022-11-25T04:36:37.539Z,10.03
2022-11-25T04:37:37.774Z,10.04
2022-11-25T04:38:37.510Z,10.03
2022-11-25T04:39:37.518Z,10.03
2022-11-25T04:40:37.490Z,10.03
2022-11-25T04:41:37.462Z,9.99
2022-11-25T04:42:37.488Z,9.96
2022-11-25T04:43:37.742Z,9.94
2022-11-25T04:44:37.842Z,9.89
2022-11-25T04:45:58.958Z,9.88
2022-11-25T04:46:38.545Z,9.85
2022-11-25T04:47:37.393Z,9.83
2022-11-25T04:48:37.392Z,9.83
2022-11-25T04:49:37.513Z,9.82
2022-11-25T04:50:37.420Z,9.81
2022-11-25T04:51:37.669Z,9.79
2022-11-25T04:52:37.354Z,9.76
2022-11-25T04:53:37.350Z,9.75
2022-11-25T04:54:37.598Z,9.73
2022-11-25T04:55:37.299Z,9.70
2022-11-25T04:56:37.614Z,9.67
2022-11-25T04:57:37.306Z,9.66
2022-11-25T04:58:37.284Z,9.64
2022-11-25T04:59:37.254Z,9.66
2022-11-25T05:00:37.256Z,9.63
2022-11-25T05:01:37.621Z,9.64
2022-11-25T05:02:37.313Z,9.64
2022-11-25T05:03:37.206Z,9.61
2022-11-25T05:04:37.409Z,9.61
2022-11-25T05:05:37.187Z,9.61
2022-11-25T05:06:37.448Z,9.60
2022-11-25T05:07:37.247Z,9.60
2022-11-25T05:08:37.480Z,9.61
2022-11-25T05:09:37.157Z,9.58
2022-11-25T05:10:37.135Z,9.58
2022-11-25T05:11:37.454Z,9.57
2022-11-25T05:12:37.134Z,9.58
2022-11-25T05:13:37.135Z,9.57
2022-11-25T05:14:37.299Z,9.57
2022-11-25T05:15:37.122Z,9.58
2022-11-25T05:16:37.125Z,9.58
2022-11-25T05:17:37.369Z,9.58
2022-11-25T05:18:37.063Z,9.57
2022-11-25T05:19:37.306Z,9.56
2022-11-25T05:20:37.047Z,9.56
2022-11-25T05:21:37.044Z,9.56
2022-11-25T05:22:37.020Z,9.57
2022-11-25T05:23:36.990Z,9.57
2022-11-25T05:24:37.138Z,9.53
2022-11-25T05:25:37.327Z,9.52
2022-11-25T05:26:36.940Z,9.52
2022-11-25T05:27:36.950Z,9.49
2022-11-25T05:28:36.921Z,9.52
2022-11-25T05:29:36.930Z,9.52
2022-11-25T05:30:36.953Z,9.52
2022-11-25T05:31:37.177Z,9.49
2022-11-25T05:32:36.880Z,9.50
2022-11-25T05:33:36.906Z,9.50
2022-11-25T05:34:37.639Z,9.52
2022-11-25T05:35:36.865Z,9.50
2022-11-25T05:36:36.836Z,9.50
2022-11-25T05:37:36.833Z,9.50
2022-11-25T05:38:36.802Z,9.52
2022-11-25T05:39:36.839Z,9.50
2022-11-25T05:40:37.129Z,9.50
2022-11-25T05:41:36.819Z,9.49
2022-11-25T05:42:36.765Z,9.49
2022-11-25T05:43:36.763Z,9.50
2022-11-25T05:44:37.055Z,9.48
2022-11-25T05:45:36.780Z,9.49
2022-11-25T05:46:37.011Z,9.48
2022-11-25T05:47:36.744Z,9.48
2022-11-25T05:48:36.727Z,9.49
2022-11-25T05:49:36.724Z,9.49
2022-11-25T05:50:36.701Z,9.49
2022-11-25T05:51:36.700Z,9.49
2022-11-25T05:52:36.673Z,9.49
2022-11-25T05:53:36.673Z,9.49
2022-11-25T05:54:36.875Z,9.50
2022-11-25T05:55:36.860Z,9.46
2022-11-25T05:56:36.606Z,9.46
2022-11-25T05:57:36.635Z,9.46
2022-11-25T05:58:36.614Z,9.45
2022-11-25T05:59:36.585Z,9.48
2022-11-25T06:00:36.558Z,9.48
2022-11-25T06:01:36.892Z,9.45
2022-11-25T06:02:36.781Z,9.46
2022-11-25T06:03:36.676Z,9.46
2022-11-25T06:04:36.870Z,9.48
2022-11-25T06:05:36.546Z,9.46
2022-11-25T06:06:36.489Z,9.48
2022-11-25T06:07:36.741Z,9.46
2022-11-25T06:08:36.495Z,9.48
2022-11-25T06:09:36.488Z,9.49
2022-11-25T06:10:36.447Z,9.48
2022-11-25T06:11:36.473Z,9.48
2022-11-25T06:12:36.420Z,9.48
2022-11-25T06:13:36.421Z,9.48
2022-11-25T06:14:36.599Z,9.49
2022-11-25T06:15:36.669Z,9.46
2022-11-25T06:16:36.432Z,9.46
2022-11-25T06:17:36.378Z,9.45
2022-11-25T06:18:36.349Z,9.45
2022-11-25T06:19:36.377Z,9.43
2022-11-25T06:20:36.379Z,9.42
2022-11-25T06:21:36.357Z,9.42
2022-11-25T06:22:36.347Z,9.40
2022-11-25T06:23:36.306Z,9.40
2022-11-25T06:24:36.591Z,9.38
2022-11-25T06:25:36.284Z,9.38
2022-11-25T06:26:36.509Z,9.38
2022-11-25T06:27:57.233Z,9.38
2022-11-25T06:28:37.260Z,9.38
2022-11-25T06:29:36.234Z,9.39
2022-11-25T06:30:36.213Z,9.39
2022-11-25T06:31:36.556Z,9.35
2022-11-25T06:32:37.550Z,9.35
2022-11-25T06:33:36.191Z,9.32
2022-11-25T06:34:36.411Z,9.32
2022-11-25T06:35:36.175Z,9.31
2022-11-25T06:36:36.171Z,9.31
2022-11-25T06:37:36.462Z,9.30
2022-11-25T06:38:36.151Z,9.28
2022-11-25T06:39:36.129Z,9.28
2022-11-25T06:40:36.096Z,9.30
2022-11-25T06:41:36.129Z,9.28
2022-11-25T06:42:36.102Z,9.25
2022-11-25T06:43:36.386Z,9.25
2022-11-25T06:44:36.194Z,9.27
2022-11-25T06:45:36.057Z,9.27
2022-11-25T06:46:36.070Z,9.27
2022-11-25T06:47:36.033Z,9.25
2022-11-25T06:48:36.096Z,9.25
2022-11-25T06:49:36.028Z,9.27
2022-11-25T06:50:36.013Z,9.27
2022-11-25T06:51:36.004Z,9.25
2022-11-25T06:52:35.985Z,9.27
2022-11-25T06:53:35.957Z,9.27
2022-11-25T06:54:36.138Z,9.24
2022-11-25T06:55:36.309Z,9.25
2022-11-25T06:56:35.945Z,9.24
2022-11-25T06:57:35.952Z,9.25
2022-11-25T06:58:36.717Z,9.24
2022-11-25T06:59:35.896Z,9.25
2022-11-25T07:00:35.895Z,9.27
2022-11-25T07:01:35.932Z,9.25
2022-11-25T07:02:41.704Z,9.24
2022-11-25T07:03:36.850Z,9.27
2022-11-25T07:04:36.001Z,9.25
2022-11-25T07:05:35.857Z,9.25
2022-11-25T07:06:35.855Z,9.25
2022-11-25T07:07:35.871Z,9.27
2022-11-25T07:08:35.800Z,9.30
2022-11-25T07:09:35.805Z,9.30
2022-11-25T07:10:35.753Z,9.30
2022-11-25T07:11:35.791Z,9.27
2022-11-25T07:12:35.752Z,9.28
2022-11-25T07:13:35.733Z,9.27
2022-11-25T07:14:36.098Z,9.28
2022-11-25T07:15:35.763Z,9.30
2022-11-25T07:16:35.684Z,9.30
2022-11-25T07:17:35.694Z,9.30
2022-11-25T07:18:35.711Z,9.28
2022-11-25T07:19:35.688Z,9.28
2022-11-25T07:20:35.633Z,9.30
2022-11-25T07:21:35.673Z,9.28
2022-11-25T07:22:35.619Z,9.31
2022-11-25T07:23:35.616Z,9.31
2022-11-25T07:24:35.826Z,9.34
2022-11-25T07:25:35.621Z,9.35
2022-11-25T07:26:35.592Z,9.34
2022-11-25T07:27:35.610Z,9.38
2022-11-25T07:28:35.546Z,9.39
2022-11-25T07:29:57.909Z,9.39
2022-11-25T07:31:36.695Z,9.38
2022-11-25T07:32:35.834Z,9.38
2022-11-25T07:33:35.598Z,9.39
2022-11-25T07:34:35.476Z,9.40
2022-11-25T07:35:35.623Z,9.43
2022-11-25T07:36:35.484Z,9.43
2022-11-25T07:37:35.457Z,9.45
2022-11-25T07:38:35.462Z,9.45
2022-11-25T07:39:35.672Z,9.46
2022-11-25T07:40:35.410Z,9.48
2022-11-25T07:41:35.677Z,9.48
2022-11-25T07:42:35.414Z,9.45
2022-11-25T07:43:35.439Z,9.49
2022-11-25T07:44:35.632Z,9.49
2022-11-25T07:45:35.398Z,9.48
2022-11-25T07:46:35.485Z,9.48
2022-11-25T07:47:35.346Z,9.49
2022-11-25T07:48:35.344Z,9.50
2022-11-25T07:49:35.589Z,9.52
2022-11-25T07:50:35.317Z,9.53
2022-11-25T07:51:35.302Z,9.53
2022-11-25T07:52:35.598Z,9.53
2022-11-25T07:53:35.272Z,9.53
2022-11-25T07:54:35.277Z,9.53
2022-11-25T07:55:35.285Z,9.56
2022-11-25T07:56:35.234Z,9.56
2022-11-25T07:57:35.229Z,9.53
2022-11-25T07:58:35.221Z,9.56
2022-11-25T07:59:35.448Z,9.58
2022-11-25T08:00:35.214Z,9.57
2022-11-25T08:01:35.270Z,9.61
2022-11-25T08:02:35.218Z,9.60
2022-11-25T08:03:35.215Z,9.60
2022-11-25T08:04:35.179Z,9.61
2022-11-25T08:05:35.187Z,9.60
2022-11-25T08:06:35.113Z,9.58
2022-11-25T08:07:36.835Z,9.60
2022-11-25T08:08:35.083Z,9.60
2022-11-25T08:09:35.726Z,9.60
2022-11-25T08:10:35.064Z,9.60
2022-11-25T08:11:35.090Z,9.60
2022-11-25T08:12:35.044Z,9.61
2022-11-25T08:13:35.080Z,9.58
2022-11-25T08:14:35.039Z,9.58
2022-11-25T08:15:35.060Z,9.58
2022-11-25T08:16:35.024Z,9.60
2022-11-25T08:17:34.993Z,9.61
2022-11-25T08:18:34.966Z,9.61
2022-11-25T08:19:35.542Z,9.60
2022-11-25T08:20:34.972Z,9.61
2022-11-25T08:21:34.980Z,9.63
2022-11-25T08:22:34.973Z,9.63
2022-11-25T08:23:34.927Z,9.64
2022-11-25T08:24:34.905Z,9.67
2022-11-25T08:25:34.949Z,9.67
2022-11-25T08:26:34.879Z,9.66
2022-11-25T08:27:34.923Z,9.68
2022-11-25T08:28:34.885Z,9.71
2022-11-25T08:29:35.183Z,9.71
2022-11-25T08:30:35.049Z,9.75
2022-11-25T08:31:34.929Z,9.76
2022-11-25T08:32:34.811Z,9.79
2022-11-25T08:33:34.836Z,9.79
2022-11-25T08:34:34.813Z,9.81
2022-11-25T08:35:34.798Z,9.85
2022-11-25T08:36:35.107Z,9.89
2022-11-25T08:37:34.794Z,9.89
2022-11-25T08:38:34.805Z,9.93
2022-11-25T08:40:35.748Z,10.00
2022-11-25T08:41:34.747Z,10.04
2022-11-25T08:42:34.757Z,10.07
2022-11-25T08:43:34.700Z,10.09
2022-11-25T08:44:34.702Z,10.15
2022-11-25T08:45:37.341Z,10.17
2022-11-25T08:46:34.685Z,10.21
2022-11-25T08:47:34.669Z,10.22
2022-11-25T08:48:34.668Z,10.30
2022-11-25T08:49:58.302Z,10.37
2022-11-25T08:50:34.611Z,10.40
2022-11-25T08:51:34.592Z,10.47
2022-11-25T08:52:34.614Z,10.52
2022-11-25T08:53:34.589Z,10.55
2022-11-25T08:54:34.588Z,10.58
2022-11-25T08:55:34.581Z,10.60
2022-11-25T08:56:34.552Z,10.56
2022-11-25T08:57:34.527Z,10.55
2022-11-25T08:58:34.563Z,10.55
2022-11-25T08:59:34.551Z,10.52
2022-11-25T09:00:34.493Z,10.51
2022-11-25T09:01:34.700Z,10.52
2022-11-25T09:02:34.486Z,10.52
2022-11-25T09:03:34.465Z,10.51
2022-11-25T09:04:34.471Z,10.46
2022-11-25T09:05:34.436Z,10.46
2022-11-25T09:06:34.426Z,10.43
2022-11-25T09:07:34.461Z,10.40
2022-11-25T09:08:34.416Z,10.37
2022-11-25T09:09:34.866Z,10.36
2022-11-25T09:10:34.413Z,10.34
2022-11-25T09:11:34.448Z,10.36
2022-11-25T09:12:34.403Z,10.36
2022-11-25T09:13:34.404Z,10.39
2022-11-25T09:14:34.355Z,10.40
2022-11-25T09:15:35.296Z,10.44
2022-11-25T09:16:34.389Z,10.47
2022-11-25T09:17:34.313Z,10.52
2022-11-25T09:18:34.554Z,10.55
2022-11-25T09:19:34.484Z,10.58
2022-11-25T09:20:34.293Z,10.60
2022-11-25T09:21:34.239Z,10.66
2022-11-25T09:22:41.251Z,10.70
2022-11-25T09:23:34.262Z,10.77
2022-11-25T09:24:34.452Z,10.78
2022-11-25T09:25:34.250Z,10.81
2022-11-25T09:26:34.189Z,10.84
2022-11-25T09:27:34.222Z,10.89
2022-11-25T09:28:34.429Z,10.94
2022-11-25T09:29:34.367Z,10.94
2022-11-25T09:30:34.135Z,10.95
2022-11-25T09:31:34.183Z,10.99
2022-11-25T09:32:34.135Z,11.02
2022-11-25T09:33:34.134Z,11.02
2022-11-25T09:34:34.555Z,11.03
2022-11-25T09:35:34.107Z,11.06
2022-11-25T09:36:34.088Z,11.10
2022-11-25T09:37:34.089Z,11.11
2022-11-25T09:38:35.691Z,11.14
2022-11-25T09:39:34.487Z,11.14
2022-11-25T09:40:34.057Z,11.14
2022-11-25T09:41:34.230Z,11.17
2022-11-25T09:42:33.999Z,11.19
2022-11-25T09:43:34.025Z,11.20
2022-11-25T09:44:33.980Z,11.25
2022-11-25T09:45:33.989Z,11.27
2022-11-25T09:46:33.991Z,11.28
2022-11-25T09:47:33.999Z,11.27
2022-11-25T09:48:33.933Z,11.24
2022-11-25T09:49:34.114Z,11.24
2022-11-25T09:50:33.902Z,11.27
2022-11-25T09:51:33.913Z,11.29
2022-11-25T09:52:33.909Z,11.32
2022-11-25T09:53:34.191Z,11.35
2022-11-25T09:54:33.879Z,11.39
2022-11-25T09:55:33.908Z,11.43
2022-11-25T09:56:33.863Z,11.46
2022-11-25T09:57:33.883Z,11.50
2022-11-25T09:58:33.840Z,11.52
2022-11-25T09:59:33.958Z,11.52
2022-11-25T10:00:33.784Z,11.49
2022-11-25T10:01:33.802Z,11.49
2022-11-25T10:02:34.173Z,11.49
2022-11-25T10:03:34.008Z,11.52
2022-11-25T10:04:33.756Z,11.54
2022-11-25T10:05:33.755Z,11.52
2022-11-25T10:06:33.774Z,11.52
2022-11-25T10:07:33.752Z,11.56
2022-11-25T10:08:34.060Z,11.61
2022-11-25T10:09:33.867Z,11.64
2022-11-25T10:10:33.675Z,11.68
2022-11-25T10:11:33.733Z,11.72
2022-11-25T10:12:33.656Z,11.75
2022-11-25T10:13:33.657Z,11.75
2022-11-25T10:14:33.636Z,11.70
2022-11-25T10:15:33.646Z,11.70
2022-11-25T10:16:33.725Z,11.67
2022-11-25T10:17:33.918Z,11.70
2022-11-25T10:18:33.619Z,11.72
2022-11-25T10:19:34.033Z,11.77
2022-11-25T10:20:33.558Z,11.71
2022-11-25T10:21:33.594Z,11.74
2022-11-25T10:22:33.565Z,11.77
2022-11-25T10:23:33.539Z,11.77
2022-11-25T10:24:38.427Z,11.74
2022-11-25T10:25:34.551Z,11.68
2022-11-25T10:26:33.499Z,11.61
2022-11-25T10:27:33.498Z,11.64
2022-11-25T10:28:33.690Z,11.64
2022-11-25T10:29:33.497Z,11.64
2022-11-25T10:30:33.451Z,11.62
2022-11-25T10:31:33.736Z,11.61
2022-11-25T10:32:33.432Z,11.57
2022-11-25T10:33:33.448Z,11.59
2022-11-25T10:34:33.706Z,11.54
2022-11-25T10:35:33.422Z,11.50
2022-11-25T10:36:33.391Z,11.50
2022-11-25T10:37:33.414Z,11.53
2022-11-25T10:38:33.382Z,11.53
2022-11-25T10:39:33.562Z,11.53
2022-11-25T10:40:33.360Z,11.52
2022-11-25T10:41:33.361Z,11.52
2022-11-25T10:42:33.340Z,11.53
2022-11-25T10:43:33.340Z,11.53
2022-11-25T10:44:33.283Z,11.56
2022-11-25T10:45:33.543Z,11.54
2022-11-25T10:46:57.159Z,11.52
2022-11-25T10:47:34.429Z,11.52
2022-11-25T10:48:33.246Z,11.52
2022-11-25T10:49:33.281Z,11.47
2022-11-25T10:50:33.225Z,11.38
2022-11-25T10:51:33.442Z,11.36
2022-11-25T10:52:33.223Z,11.39
2022-11-25T10:53:33.233Z,11.41
2022-11-25T10:54:33.404Z,11.41
2022-11-25T10:55:33.195Z,11.47
2022-11-25T10:56:33.156Z,11.53
2022-11-25T10:57:33.183Z,11.56
2022-11-25T10:58:33.368Z,11.62
2022-11-25T10:59:33.193Z,11.65
2022-11-25T11:00:33.120Z,11.70
2022-11-25T11:01:33.201Z,11.72
2022-11-25T11:02:33.135Z,11.77
2022-11-25T11:03:33.526Z,11.72
2022-11-25T11:04:33.096Z,11.71
2022-11-25T11:05:33.103Z,11.70
2022-11-25T11:06:33.059Z,11.75
2022-11-25T11:07:33.216Z,11.80
2022-11-25T11:08:33.038Z,11.80
2022-11-25T11:09:33.318Z,11.87
2022-11-25T11:10:33.017Z,11.97
2022-11-25T11:11:32.989Z,11.99
2022-11-25T11:12:33.296Z,12.01
2022-11-25T11:13:32.986Z,12.08
2022-11-25T11:14:32.982Z,12.06
2022-11-25T11:15:32.958Z,12.02
2022-11-25T11:16:32.961Z,12.05
2022-11-25T11:17:36.320Z,12.04
2022-11-25T11:18:33.230Z,12.06
2022-11-25T11:19:32.919Z,12.09
2022-11-25T11:20:32.871Z,11.90
2022-11-25T11:21:32.903Z,11.89
2022-11-25T11:22:32.873Z,11.90
2022-11-25T11:23:33.083Z,11.96
2022-11-25T11:24:32.850Z,11.97
2022-11-25T11:25:32.871Z,12.01
2022-11-25T11:26:32.803Z,12.05
2022-11-25T11:27:32.827Z,12.11
2022-11-25T11:28:32.809Z,12.12
2022-11-25T11:29:33.014Z,12.12
2022-11-25T11:30:32.755Z,12.04
2022-11-25T11:31:32.888Z,12.06
2022-11-25T11:32:32.754Z,12.05
2022-11-25T11:33:32.735Z,12.13
2022-11-25T11:34:32.708Z,12.13
2022-11-25T11:35:35.491Z,12.20
2022-11-25T11:36:33.686Z,12.21
2022-11-25T11:37:32.705Z,12.11
2022-11-25T11:38:32.694Z,12.05
2022-11-25T11:39:32.909Z,12.01
2022-11-25T11:40:32.630Z,11.96
2022-11-25T11:41:32.645Z,11.82
2022-11-25T11:42:32.629Z,11.78
2022-11-25T11:43:32.636Z,11.71
2022-11-25T11:44:32.620Z,11.65
2022-11-25T11:45:32.798Z,11.65
2022-11-25T11:46:32.657Z,11.68
2022-11-25T11:47:32.587Z,11.70
2022-11-25T11:48:32.566Z,11.72
2022-11-25T11:49:32.584Z,11.70
2022-11-25T11:50:32.876Z,11.74
2022-11-25T11:51:32.539Z,11.75
2022-11-25T11:52:32.525Z,11.75
2022-11-25T11:53:32.518Z,11.77
2022-11-25T11:54:32.499Z,11.75
2022-11-25T11:55:32.533Z,11.78
2022-11-25T11:56:36.235Z,11.78
2022-11-25T11:57:32.472Z,11.86
2022-11-25T11:58:32.448Z,11.93
2022-11-25T11:59:32.449Z,11.99
2022-11-25T12:00:32.443Z,11.90
2022-11-25T12:01:32.795Z,11.89
2022-11-25T12:02:32.442Z,11.89
2022-11-25T12:03:32.432Z,11.87
2022-11-25T12:04:32.355Z,11.94
2022-11-25T12:05:32.381Z,11.97
2022-11-25T12:06:32.352Z,11.97
2022-11-25T12:07:32.779Z,12.04
2022-11-25T12:08:32.331Z,12.05
2022-11-25T12:09:32.331Z,12.09
2022-11-25T12:10:32.293Z,12.13
2022-11-25T12:11:32.311Z,12.15
2022-11-25T12:12:32.292Z,12.13
2022-11-25T12:13:32.577Z,12.13
2022-11-25T12:14:32.261Z,12.20
2022-11-25T12:15:32.263Z,12.23
2022-11-25T12:16:32.321Z,12.29
2022-11-25T12:17:32.294Z,12.30
2022-11-25T12:18:32.216Z,12.37
2022-11-25T12:19:32.473Z,12.42
2022-11-25T12:20:32.185Z,12.42
2022-11-25T12:21:33.701Z,12.34
2022-11-25T12:22:32.138Z,12.39
2022-11-25T12:23:32.155Z,12.44
2022-11-25T12:24:32.425Z,12.46
2022-11-25T12:25:32.119Z,12.54
2022-11-25T12:26:32.288Z,12.59
2022-11-25T12:27:32.189Z,12.60
2022-11-25T12:28:32.085Z,12.49
2022-11-25T12:29:32.405Z,12.45
2022-11-25T12:30:32.076Z,12.42
2022-11-25T12:31:32.130Z,12.41
2022-11-25T12:32:32.020Z,12.33
2022-11-25T12:33:32.018Z,12.27
2022-11-25T12:34:31.992Z,12.24
2022-11-25T12:35:32.026Z,12.27
2022-11-25T12:36:31.991Z,12.29
2022-11-25T12:37:32.346Z,12.31
2022-11-25T12:38:31.975Z,12.26
2022-11-25T12:39:31.969Z,12.21
2022-11-25T12:40:31.923Z,12.19
2022-11-25T12:41:31.949Z,12.13
2022-11-25T12:42:31.913Z,12.12
2022-11-25T12:43:53.192Z,12.13
2022-11-25T12:44:32.133Z,12.15
2022-11-25T12:45:31.936Z,12.16
2022-11-25T12:46:31.880Z,12.19
2022-11-25T12:47:31.883Z,12.23
2022-11-25T12:48:32.171Z,12.23
2022-11-25T12:49:31.851Z,12.23
2022-11-25T12:50:32.644Z,12.26
2022-11-25T12:51:31.817Z,12.30
2022-11-25T12:52:31.975Z,12.34
2022-11-25T12:53:31.813Z,12.37
2022-11-25T12:54:31.782Z,12.37
2022-11-25T12:55:31.792Z,12.38
2022-11-25T12:56:31.785Z,12.38
2022-11-25T12:57:31.836Z,12.39
2022-11-25T12:58:31.767Z,12.34
2022-11-25T12:59:31.743Z,12.31
2022-11-25T13:00:47.077Z,12.34
2022-11-25T13:01:33.084Z,12.33
2022-11-25T13:02:31.720Z,12.34
2022-11-25T13:03:31.658Z,12.33
2022-11-25T13:04:31.687Z,12.29
2022-11-25T13:06:32.648Z,12.31
2022-11-25T13:07:31.998Z,12.33
2022-11-25T13:08:31.589Z,12.27
2022-11-25T13:09:31.617Z,12.23
2022-11-25T13:10:31.597Z,12.15
2022-11-25T13:10:55.400Z,12.29